sensor_id;sensor_type;location;lat;lon;timestamp;P1;durP1;ratioP1;P2;durP2;ratioP2
25687;SDS011;17407;51.120;3.702;2022-09-30T00:02:16;22.95;;;15.10;;
25687;SDS011;17407;51.120;3.702;2022-09-30T00:04:42;24.75;;;15.00;;
25687;SDS011;17407;51.120;3.702;2022-09-30T01:19:25;13.93;;;9.80;;
25687;SDS011;17407;51.120;3.702;2022-09-30T01:29:27;11.18;;;9.07;;
25687;SDS011;17407;51.120;3.702;2022-09-30T01:32:43;15.48;;;10.68;;
25687;SDS011;17407;51.120;3.702;2022-09-30T01:39:14;15.35;;;11.52;;
25687;SDS011;17407;51.120;3.702;2022-09-30T01:49:40;22.75;;;14.32;;
25687;SDS011;17407;51.120;3.702;2022-09-30T01:52:53;20.65;;;14.25;;
25687;SDS011;17407;51.120;3.702;2022-09-30T01:59:20;21.45;;;13.60;;
25687;SDS011;17407;51.120;3.702;2022-09-30T02:02:32;17.00;;;14.30;;
25687;SDS011;17407;51.120;3.702;2022-09-30T02:05:59;15.93;;;13.02;;
25687;SDS011;17407;51.120;3.702;2022-09-30T02:09:10;16.60;;;12.80;;
25687;SDS011;17407;51.120;3.702;2022-09-30T02:12:22;18.33;;;13.20;;
25687;SDS011;17407;51.120;3.702;2022-09-30T02:33:39;18.33;;;14.75;;
25687;SDS011;17407;51.120;3.702;2022-09-30T02:36:53;18.38;;;15.25;;
25687;SDS011;17407;51.120;3.702;2022-09-30T02:40:12;19.25;;;15.32;;
25687;SDS011;17407;51.120;3.702;2022-09-30T02:47:07;16.80;;;13.77;;
25687;SDS011;17407;51.120;3.702;2022-09-30T03:45:16;21.77;;;16.20;;
25687;SDS011;17407;51.120;3.702;2022-09-30T03:48:27;16.98;;;15.00;;
25687;SDS011;17407;51.120;3.702;2022-09-30T03:51:38;21.83;;;16.10;;
25687;SDS011;17407;51.120;3.702;2022-09-30T03:54:55;23.05;;;16.83;;
25687;SDS011;17407;51.120;3.702;2022-09-30T03:58:07;18.48;;;15.73;;
25687;SDS011;17407;51.120;3.702;2022-09-30T04:01:18;23.13;;;16.38;;
25687;SDS011;17407;51.120;3.702;2022-09-30T04:04:42;18.80;;;15.82;;
25687;SDS011;17407;51.120;3.702;2022-09-30T04:07:51;21.10;;;14.95;;
25687;SDS011;17407;51.120;3.702;2022-09-30T04:11:02;20.52;;;16.02;;
25687;SDS011;17407;51.120;3.702;2022-09-30T04:14:11;22.40;;;17.20;;
25687;SDS011;17407;51.120;3.702;2022-09-30T04:17:20;17.85;;;15.43;;
25687;SDS011;17407;51.120;3.702;2022-09-30T04:20:29;22.75;;;15.60;;
25687;SDS011;17407;51.120;3.702;2022-09-30T04:23:40;21.50;;;16.08;;
25687;SDS011;17407;51.120;3.702;2022-09-30T04:26:49;19.85;;;15.75;;
25687;SDS011;17407;51.120;3.702;2022-09-30T04:29:59;18.70;;;15.43;;
25687;SDS011;17407;51.120;3.702;2022-09-30T04:33:09;19.17;;;15.88;;
25687;SDS011;17407;51.120;3.702;2022-09-30T04:36:18;21.02;;;15.20;;
25687;SDS011;17407;51.120;3.702;2022-09-30T04:39:28;19.75;;;15.43;;
25687;SDS011;17407;51.120;3.702;2022-09-30T04:42:38;22.67;;;16.80;;
25687;SDS011;17407;51.120;3.702;2022-09-30T05:03:49;21.17;;;15.55;;
25687;SDS011;17407;51.120;3.702;2022-09-30T05:06:58;20.23;;;15.88;;
25687;SDS011;17407;51.120;3.702;2022-09-30T05:10:08;20.55;;;15.88;;
25687;SDS011;17407;51.120;3.702;2022-09-30T05:13:18;21.58;;;16.08;;
25687;SDS011;17407;51.120;3.702;2022-09-30T05:16:27;21.23;;;16.98;;
25687;SDS011;17407;51.120;3.702;2022-09-30T05:19:36;24.48;;;18.15;;
25687;SDS011;17407;51.120;3.702;2022-09-30T05:22:45;19.73;;;16.23;;
25687;SDS011;17407;51.120;3.702;2022-09-30T05:25:55;26.17;;;19.10;;
25687;SDS011;17407;51.120;3.702;2022-09-30T05:29:05;20.80;;;16.42;;
25687;SDS011;17407;51.120;3.702;2022-09-30T05:32:15;19.58;;;16.30;;
25687;SDS011;17407;51.120;3.702;2022-09-30T05:35:25;22.08;;;16.52;;
25687;SDS011;17407;51.120;3.702;2022-09-30T05:38:34;20.08;;;16.77;;
25687;SDS011;17407;51.120;3.702;2022-09-30T05:41:43;27.35;;;17.02;;
25687;SDS011;17407;51.120;3.702;2022-09-30T05:44:53;22.23;;;17.55;;
25687;SDS011;17407;51.120;3.702;2022-09-30T05:48:03;23.75;;;18.75;;
25687;SDS011;17407;51.120;3.702;2022-09-30T05:51:12;25.20;;;18.95;;
25687;SDS011;17407;51.120;3.702;2022-09-30T05:54:22;26.35;;;19.95;;
25687;SDS011;17407;51.120;3.702;2022-09-30T05:57:31;23.08;;;18.88;;
25687;SDS011;17407;51.120;3.702;2022-09-30T06:37:12;26.83;;;18.63;;
25687;SDS011;17407;51.120;3.702;2022-09-30T06:40:22;21.77;;;16.63;;
25687;SDS011;17407;51.120;3.702;2022-09-30T06:43:31;21.15;;;17.58;;
25687;SDS011;17407;51.120;3.702;2022-09-30T06:46:40;23.00;;;16.65;;
25687;SDS011;17407;51.120;3.702;2022-09-30T06:49:50;21.73;;;16.67;;
25687;SDS011;17407;51.120;3.702;2022-09-30T06:53:01;27.13;;;17.45;;
25687;SDS011;17407;51.120;3.702;2022-09-30T06:56:10;23.88;;;17.45;;
25687;SDS011;17407;51.120;3.702;2022-09-30T06:59:20;23.85;;;16.05;;
25687;SDS011;17407;51.120;3.702;2022-09-30T07:02:29;25.17;;;17.52;;
25687;SDS011;17407;51.120;3.702;2022-09-30T07:05:56;23.58;;;16.90;;
25687;SDS011;17407;51.120;3.702;2022-09-30T07:09:05;21.15;;;15.98;;
25687;SDS011;17407;51.120;3.702;2022-09-30T07:12:14;21.75;;;16.70;;
25687;SDS011;17407;51.120;3.702;2022-09-30T07:15:24;18.45;;;14.75;;
25687;SDS011;17407;51.120;3.702;2022-09-30T07:18:33;22.88;;;16.33;;
25687;SDS011;17407;51.120;3.702;2022-09-30T07:21:43;24.55;;;16.65;;
25687;SDS011;17407;51.120;3.702;2022-09-30T07:24:53;23.13;;;16.05;;
25687;SDS011;17407;51.120;3.702;2022-09-30T07:28:03;24.17;;;17.58;;
25687;SDS011;17407;51.120;3.702;2022-09-30T07:31:14;22.60;;;16.38;;
25687;SDS011;17407;51.120;3.702;2022-09-30T07:34:24;24.95;;;15.65;;
25687;SDS011;17407;51.120;3.702;2022-09-30T07:37:34;24.73;;;17.40;;
25687;SDS011;17407;51.120;3.702;2022-09-30T07:44:06;24.98;;;16.98;;
25687;SDS011;17407;51.120;3.702;2022-09-30T07:47:16;21.05;;;16.65;;
25687;SDS011;17407;51.120;3.702;2022-09-30T07:50:26;23.63;;;17.60;;
25687;SDS011;17407;51.120;3.702;2022-09-30T07:53:35;25.52;;;17.33;;
25687;SDS011;17407;51.120;3.702;2022-09-30T07:56:44;20.58;;;15.05;;
25687;SDS011;17407;51.120;3.702;2022-09-30T07:59:53;17.20;;;13.80;;
25687;SDS011;17407;51.120;3.702;2022-09-30T08:05:41;21.90;;;14.38;;
25687;SDS011;17407;51.120;3.702;2022-09-30T08:08:12;24.05;;;14.10;;
25687;SDS011;17407;51.120;3.702;2022-09-30T08:11:20;18.30;;;13.18;;
25687;SDS011;17407;51.120;3.702;2022-09-30T09:15:52;11.98;;;9.63;;
25687;SDS011;17407;51.120;3.702;2022-09-30T09:19:10;14.25;;;8.55;;
25687;SDS011;17407;51.120;3.702;2022-09-30T09:22:21;13.63;;;9.05;;
25687;SDS011;17407;51.120;3.702;2022-09-30T09:25:31;14.00;;;9.13;;
25687;SDS011;17407;51.120;3.702;2022-09-30T09:28:43;11.95;;;8.35;;
25687;SDS011;17407;51.120;3.702;2022-09-30T09:31:47;10.48;;;8.65;;
25687;SDS011;17407;51.120;3.702;2022-09-30T09:35:00;11.20;;;8.30;;
25687;SDS011;17407;51.120;3.702;2022-09-30T09:38:19;10.98;;;8.55;;
25687;SDS011;17407;51.120;3.702;2022-09-30T10:55:54;7.43;;;6.65;;
25687;SDS011;17407;51.120;3.702;2022-09-30T10:59:05;6.85;;;6.13;;
25687;SDS011;17407;51.120;3.702;2022-09-30T11:02:22;7.00;;;6.40;;
25687;SDS011;17407;51.120;3.702;2022-09-30T11:05:59;8.82;;;6.43;;
25687;SDS011;17407;51.120;3.702;2022-09-30T11:09:10;7.35;;;6.30;;
25687;SDS011;17407;51.120;3.702;2022-09-30T11:15:46;10.93;;;6.75;;
25687;SDS011;17407;51.120;3.702;2022-09-30T11:25:46;8.05;;;6.50;;
25687;SDS011;17407;51.120;3.702;2022-09-30T12:03:21;8.05;;;4.43;;
25687;SDS011;17407;51.120;3.702;2022-09-30T12:06:34;4.63;;;4.23;;
25687;SDS011;17407;51.120;3.702;2022-09-30T12:09:48;4.95;;;4.45;;
25687;SDS011;17407;51.120;3.702;2022-09-30T12:13:01;4.68;;;4.22;;
25687;SDS011;17407;51.120;3.702;2022-09-30T12:16:13;5.82;;;3.67;;
25687;SDS011;17407;51.120;3.702;2022-09-30T12:19:27;4.57;;;3.45;;
25687;SDS011;17407;51.120;3.702;2022-09-30T12:22:38;4.90;;;3.63;;
25687;SDS011;17407;51.120;3.702;2022-09-30T12:25:53;5.95;;;3.88;;
25687;SDS011;17407;51.120;3.702;2022-09-30T12:29:05;5.53;;;4.60;;
25687;SDS011;17407;51.120;3.702;2022-09-30T12:39:22;6.40;;;4.10;;
25687;SDS011;17407;51.120;3.702;2022-09-30T12:49:04;4.10;;;3.30;;
25687;SDS011;17407;51.120;3.702;2022-09-30T12:52:15;3.78;;;3.47;;
25687;SDS011;17407;51.120;3.702;2022-09-30T12:55:31;5.55;;;3.38;;
25687;SDS011;17407;51.120;3.702;2022-09-30T13:17:02;5.57;;;2.60;;
25687;SDS011;17407;51.120;3.702;2022-09-30T13:23:47;4.80;;;3.10;;
25687;SDS011;17407;51.120;3.702;2022-09-30T13:27:11;5.68;;;2.63;;
25687;SDS011;17407;51.120;3.702;2022-09-30T13:34:03;3.00;;;2.35;;
25687;SDS011;17407;51.120;3.702;2022-09-30T13:37:31;4.35;;;2.78;;
25687;SDS011;17407;51.120;3.702;2022-09-30T13:40:53;2.88;;;2.47;;
25687;SDS011;17407;51.120;3.702;2022-09-30T13:44:03;2.80;;;2.50;;
25687;SDS011;17407;51.120;3.702;2022-09-30T13:47:09;4.47;;;2.43;;
25687;SDS011;17407;51.120;3.702;2022-09-30T13:50:24;2.80;;;2.53;;
25687;SDS011;17407;51.120;3.702;2022-09-30T13:53:34;2.90;;;2.40;;
25687;SDS011;17407;51.120;3.702;2022-09-30T13:56:44;2.35;;;2.00;;
25687;SDS011;17407;51.120;3.702;2022-09-30T14:00:05;3.35;;;2.10;;
25687;SDS011;17407;51.120;3.702;2022-09-30T16:14:33;4.63;;;2.53;;
25687;SDS011;17407;51.120;3.702;2022-09-30T16:21:24;7.88;;;2.38;;
25687;SDS011;17407;51.120;3.702;2022-09-30T16:24:47;3.88;;;2.20;;
25687;SDS011;17407;51.120;3.702;2022-09-30T16:28:10;2.17;;;1.98;;
25687;SDS011;17407;51.120;3.702;2022-09-30T16:31:20;2.45;;;2.25;;
25687;SDS011;17407;51.120;3.702;2022-09-30T16:34:30;2.97;;;2.13;;
25687;SDS011;17407;51.120;3.702;2022-09-30T16:37:40;3.22;;;2.15;;
25687;SDS011;17407;51.120;3.702;2022-09-30T16:40:49;6.70;;;4.35;;
25687;SDS011;17407;51.120;3.702;2022-09-30T16:43:58;6.55;;;4.03;;
25687;SDS011;17407;51.120;3.702;2022-09-30T16:47:10;5.88;;;2.60;;
25687;SDS011;17407;51.120;3.702;2022-09-30T16:53:45;4.38;;;2.08;;
25687;SDS011;17407;51.120;3.702;2022-09-30T16:56:54;6.15;;;2.67;;
25687;SDS011;17407;51.120;3.702;2022-09-30T17:00:04;3.50;;;1.92;;
25687;SDS011;17407;51.120;3.702;2022-09-30T17:03:15;3.88;;;2.75;;
25687;SDS011;17407;51.120;3.702;2022-09-30T17:05:42;3.47;;;2.80;;
25687;SDS011;17407;51.120;3.702;2022-09-30T18:28:15;4.47;;;2.63;;
25687;SDS011;17407;51.120;3.702;2022-09-30T18:31:25;3.25;;;2.95;;
25687;SDS011;17407;51.120;3.702;2022-09-30T18:34:34;3.45;;;2.72;;
25687;SDS011;17407;51.120;3.702;2022-09-30T18:37:43;4.05;;;2.55;;
25687;SDS011;17407;51.120;3.702;2022-09-30T18:40:53;4.95;;;2.80;;
25687;SDS011;17407;51.120;3.702;2022-09-30T18:44:03;4.45;;;2.92;;
25687;SDS011;17407;51.120;3.702;2022-09-30T18:47:13;4.28;;;2.40;;
25687;SDS011;17407;51.120;3.702;2022-09-30T18:50:23;2.58;;;2.38;;
25687;SDS011;17407;51.120;3.702;2022-09-30T18:53:33;3.08;;;2.50;;
25687;SDS011;17407;51.120;3.702;2022-09-30T18:56:42;5.40;;;2.78;;
25687;SDS011;17407;51.120;3.702;2022-09-30T18:59:52;3.00;;;2.67;;
25687;SDS011;17407;51.120;3.702;2022-09-30T19:03:01;3.38;;;2.80;;
25687;SDS011;17407;51.120;3.702;2022-09-30T19:05:27;5.28;;;2.95;;
25687;SDS011;17407;51.120;3.702;2022-09-30T19:07:52;5.20;;;3.08;;
25687;SDS011;17407;51.120;3.702;2022-09-30T19:10:18;5.53;;;3.13;;
25687;SDS011;17407;51.120;3.702;2022-09-30T19:12:44;3.42;;;2.85;;
25687;SDS011;17407;51.120;3.702;2022-09-30T19:15:10;12.25;;;4.05;;
25687;SDS011;17407;51.120;3.702;2022-09-30T19:17:40;4.35;;;2.45;;
25687;SDS011;17407;51.120;3.702;2022-09-30T19:20:06;4.75;;;2.53;;
25687;SDS011;17407;51.120;3.702;2022-09-30T19:23:14;7.50;;;2.80;;
25687;SDS011;17407;51.120;3.702;2022-09-30T19:57:03;6.15;;;3.30;;
25687;SDS011;17407;51.120;3.702;2022-09-30T20:00:13;4.05;;;2.83;;
25687;SDS011;17407;51.120;3.702;2022-09-30T20:03:22;5.53;;;3.40;;
25687;SDS011;17407;51.120;3.702;2022-09-30T20:05:59;4.53;;;3.25;;
25687;SDS011;17407;51.120;3.702;2022-09-30T20:08:30;6.47;;;3.08;;
25687;SDS011;17407;51.120;3.702;2022-09-30T20:11:05;5.32;;;2.90;;
25687;SDS011;17407;51.120;3.702;2022-09-30T21:30:51;6.10;;;3.63;;
25687;SDS011;17407;51.120;3.702;2022-09-30T21:34:01;4.57;;;4.03;;
25687;SDS011;17407;51.120;3.702;2022-09-30T21:37:11;4.80;;;4.03;;
25687;SDS011;17407;51.120;3.702;2022-09-30T21:40:21;7.55;;;4.28;;
25687;SDS011;17407;51.120;3.702;2022-09-30T21:43:30;3.80;;;3.40;;
25687;SDS011;17407;51.120;3.702;2022-09-30T21:46:40;7.97;;;4.03;;
25687;SDS011;17407;51.120;3.702;2022-09-30T21:49:49;6.28;;;3.95;;
25687;SDS011;17407;51.120;3.702;2022-09-30T21:52:58;5.75;;;3.97;;
25687;SDS011;17407;51.120;3.702;2022-09-30T21:56:07;5.20;;;4.25;;
25687;SDS011;17407;51.120;3.702;2022-09-30T21:59:18;7.47;;;4.20;;
25687;SDS011;17407;51.120;3.702;2022-09-30T22:02:27;4.93;;;4.38;;
25687;SDS011;17407;51.120;3.702;2022-09-30T22:05:51;7.57;;;4.90;;
25687;SDS011;17407;51.120;3.702;2022-09-30T22:09:02;6.15;;;4.50;;
25687;SDS011;17407;51.120;3.702;2022-09-30T22:12:12;5.20;;;4.70;;
25687;SDS011;17407;51.120;3.702;2022-09-30T22:15:21;5.50;;;4.95;;
25687;SDS011;17407;51.120;3.702;2022-09-30T22:18:31;6.18;;;4.45;;
25687;SDS011;17407;51.120;3.702;2022-09-30T22:21:40;6.05;;;5.03;;
25687;SDS011;17407;51.120;3.702;2022-09-30T22:24:50;7.63;;;4.65;;
25687;SDS011;17407;51.120;3.702;2022-09-30T22:28:00;7.22;;;6.30;;
25687;SDS011;17407;51.120;3.702;2022-09-30T22:31:14;6.15;;;4.85;;
25687;SDS011;17407;51.120;3.702;2022-09-30T22:34:24;6.75;;;5.50;;
25687;SDS011;17407;51.120;3.702;2022-09-30T22:37:33;7.53;;;5.65;;
25687;SDS011;17407;51.120;3.702;2022-09-30T22:40:42;8.32;;;6.05;;
25687;SDS011;17407;51.120;3.702;2022-09-30T22:43:52;7.25;;;6.05;;
25687;SDS011;17407;51.120;3.702;2022-09-30T22:47:02;6.68;;;5.88;;
25687;SDS011;17407;51.120;3.702;2022-09-30T22:50:13;7.38;;;5.35;;
25687;SDS011;17407;51.120;3.702;2022-09-30T22:53:22;7.78;;;5.65;;
25687;SDS011;17407;51.120;3.702;2022-09-30T22:56:32;12.38;;;6.10;;
25687;SDS011;17407;51.120;3.702;2022-09-30T22:59:41;10.02;;;6.72;;
